sensor_id;sensor_type;location;lat;lon;timestamp;temperature;humidity
70079;DHT22;57451;52.496;13.456;2023-05-07T00:00:36;9.90;72.50
70079;DHT22;57451;52.496;13.456;2023-05-07T00:03:03;10.00;72.20
70079;DHT22;57451;52.496;13.456;2023-05-07T00:05:32;10.00;72.40
70079;DHT22;57451;52.496;13.456;2023-05-07T00:07:59;10.00;72.40
70079;DHT22;57451;52.496;13.456;2023-05-07T00:10:27;10.00;72.50
70079;DHT22;57451;52.496;13.456;2023-05-07T00:12:54;10.00;72.60
70079;DHT22;57451;52.496;13.456;2023-05-07T00:15:21;10.00;72.50
70079;DHT22;57451;52.496;13.456;2023-05-07T00:17:48;10.00;72.10
70079;DHT22;57451;52.496;13.456;2023-05-07T00:20:16;10.00;72.20
70079;DHT22;57451;52.496;13.456;2023-05-07T00:22:44;9.90;72.40
70079;DHT22;57451;52.496;13.456;2023-05-07T00:25:12;10.00;72.10
70079;DHT22;57451;52.496;13.456;2023-05-07T00:27:39;10.00;72.20
70079;DHT22;57451;52.496;13.456;2023-05-07T00:30:07;9.90;72.20
70079;DHT22;57451;52.496;13.456;2023-05-07T00:32:35;9.90;72.00
70079;DHT22;57451;52.496;13.456;2023-05-07T00:35:04;10.00;72.20
70079;DHT22;57451;52.496;13.456;2023-05-07T00:37:32;10.00;72.10
70079;DHT22;57451;52.496;13.456;2023-05-07T00:40:00;10.00;72.20
70079;DHT22;57451;52.496;13.456;2023-05-07T00:42:30;9.90;72.10
70079;DHT22;57451;52.496;13.456;2023-05-07T00:45:01;9.90;72.20
70079;DHT22;57451;52.496;13.456;2023-05-07T00:47:28;9.90;72.20
70079;DHT22;57451;52.496;13.456;2023-05-07T00:49:57;9.90;72.00
70079;DHT22;57451;52.496;13.456;2023-05-07T00:52:25;9.90;72.10
70079;DHT22;57451;52.496;13.456;2023-05-07T00:54:53;10.00;71.90
70079;DHT22;57451;52.496;13.456;2023-05-07T00:57:24;9.90;71.70
70079;DHT22;57451;52.496;13.456;2023-05-07T00:59:52;10.00;71.80
70079;DHT22;57451;52.496;13.456;2023-05-07T01:02:20;10.00;71.60
70079;DHT22;57451;52.496;13.456;2023-05-07T01:04:47;9.90;71.70
70079;DHT22;57451;52.496;13.456;2023-05-07T01:07:15;9.90;71.80
70079;DHT22;57451;52.496;13.456;2023-05-07T01:09:42;9.80;72.10
70079;DHT22;57451;52.496;13.456;2023-05-07T01:12:10;9.80;72.10
70079;DHT22;57451;52.496;13.456;2023-05-07T01:14:39;9.90;71.90
70079;DHT22;57451;52.496;13.456;2023-05-07T01:17:06;9.90;71.80
70079;DHT22;57451;52.496;13.456;2023-05-07T01:19:34;9.90;71.80
70079;DHT22;57451;52.496;13.456;2023-05-07T01:22:04;9.90;71.70
70079;DHT22;57451;52.496;13.456;2023-05-07T01:24:43;9.90;71.80
70079;DHT22;57451;52.496;13.456;2023-05-07T01:27:12;9.90;71.80
70079;DHT22;57451;52.496;13.456;2023-05-07T01:29:39;9.90;71.60
70079;DHT22;57451;52.496;13.456;2023-05-07T01:32:07;9.90;71.50
70079;DHT22;57451;52.496;13.456;2023-05-07T01:34:36;9.90;71.50
70079;DHT22;57451;52.496;13.456;2023-05-07T01:37:04;9.90;71.50
70079;DHT22;57451;52.496;13.456;2023-05-07T01:39:32;9.90;71.60
70079;DHT22;57451;52.496;13.456;2023-05-07T01:42:01;9.90;71.40
70079;DHT22;57451;52.496;13.456;2023-05-07T01:44:28;9.90;71.40
70079;DHT22;57451;52.496;13.456;2023-05-07T01:46:57;9.90;71.30
70079;DHT22;57451;52.496;13.456;2023-05-07T01:49:24;9.90;71.50
70079;DHT22;57451;52.496;13.456;2023-05-07T01:51:52;9.90;71.40
70079;DHT22;57451;52.496;13.456;2023-05-07T01:54:19;9.90;71.40
70079;DHT22;57451;52.496;13.456;2023-05-07T01:56:51;9.90;71.50
70079;DHT22;57451;52.496;13.456;2023-05-07T01:59:20;9.90;70.80
70079;DHT22;57451;52.496;13.456;2023-05-07T02:01:47;9.90;71.00
70079;DHT22;57451;52.496;13.456;2023-05-07T02:04:15;9.90;71.10
70079;DHT22;57451;52.496;13.456;2023-05-07T02:06:42;9.90;71.00
70079;DHT22;57451;52.496;13.456;2023-05-07T02:09:11;9.90;71.10
70079;DHT22;57451;52.496;13.456;2023-05-07T02:11:41;9.90;71.30
70079;DHT22;57451;52.496;13.456;2023-05-07T02:14:08;9.90;71.50
70079;DHT22;57451;52.496;13.456;2023-05-07T02:16:37;9.90;71.30
70079;DHT22;57451;52.496;13.456;2023-05-07T02:19:04;9.90;71.10
70079;DHT22;57451;52.496;13.456;2023-05-07T02:21:32;9.90;71.00
70079;DHT22;57451;52.496;13.456;2023-05-07T02:23:59;9.90;71.00
70079;DHT22;57451;52.496;13.456;2023-05-07T02:26:26;9.90;71.30
70079;DHT22;57451;52.496;13.456;2023-05-07T02:28:54;9.90;71.20
70079;DHT22;57451;52.496;13.456;2023-05-07T02:31:21;9.90;71.40
70079;DHT22;57451;52.496;13.456;2023-05-07T02:33:50;9.90;71.10
70079;DHT22;57451;52.496;13.456;2023-05-07T02:36:17;9.90;70.90
70079;DHT22;57451;52.496;13.456;2023-05-07T02:38:52;9.90;70.80
70079;DHT22;57451;52.496;13.456;2023-05-07T02:41:19;9.90;70.70
70079;DHT22;57451;52.496;13.456;2023-05-07T02:43:47;9.90;70.90
70079;DHT22;57451;52.496;13.456;2023-05-07T02:46:15;9.90;71.00
70079;DHT22;57451;52.496;13.456;2023-05-07T02:48:47;9.90;71.30
70079;DHT22;57451;52.496;13.456;2023-05-07T02:51:17;9.90;71.00
70079;DHT22;57451;52.496;13.456;2023-05-07T02:53:44;9.90;71.00
70079;DHT22;57451;52.496;13.456;2023-05-07T02:56:11;9.90;70.90
70079;DHT22;57451;52.496;13.456;2023-05-07T02:58:39;9.90;70.70
70079;DHT22;57451;52.496;13.456;2023-05-07T03:01:08;9.90;70.50
70079;DHT22;57451;52.496;13.456;2023-05-07T03:03:44;9.90;70.30
70079;DHT22;57451;52.496;13.456;2023-05-07T03:06:11;9.90;70.90
70079;DHT22;57451;52.496;13.456;2023-05-07T03:08:40;9.90;70.80
70079;DHT22;57451;52.496;13.456;2023-05-07T03:11:07;9.90;70.60
70079;DHT22;57451;52.496;13.456;2023-05-07T03:13:35;9.90;70.50
70079;DHT22;57451;52.496;13.456;2023-05-07T03:16:02;9.90;70.60
70079;DHT22;57451;52.496;13.456;2023-05-07T03:18:30;9.90;70.70
70079;DHT22;57451;52.496;13.456;2023-05-07T03:20:57;9.90;70.60
70079;DHT22;57451;52.496;13.456;2023-05-07T03:23:24;9.90;70.70
70079;DHT22;57451;52.496;13.456;2023-05-07T03:25:53;9.80;70.90
70079;DHT22;57451;52.496;13.456;2023-05-07T03:28:21;9.90;70.80
70079;DHT22;57451;52.496;13.456;2023-05-07T03:30:59;9.80;70.80
70079;DHT22;57451;52.496;13.456;2023-05-07T03:33:26;9.80;70.90
70079;DHT22;57451;52.496;13.456;2023-05-07T03:35:55;9.80;70.80
70079;DHT22;57451;52.496;13.456;2023-05-07T03:38:24;9.80;70.90
70079;DHT22;57451;52.496;13.456;2023-05-07T03:40:53;9.80;71.10
70079;DHT22;57451;52.496;13.456;2023-05-07T03:43:20;9.80;71.10
70079;DHT22;57451;52.496;13.456;2023-05-07T03:45:54;9.80;70.90
70079;DHT22;57451;52.496;13.456;2023-05-07T03:48:25;9.80;71.40
70079;DHT22;57451;52.496;13.456;2023-05-07T03:50:56;9.70;71.50
70079;DHT22;57451;52.496;13.456;2023-05-07T03:53:26;9.70;71.50
70079;DHT22;57451;52.496;13.456;2023-05-07T03:55:55;9.80;71.40
70079;DHT22;57451;52.496;13.456;2023-05-07T03:58:22;9.80;71.50
70079;DHT22;57451;52.496;13.456;2023-05-07T04:00:51;9.80;71.20
70079;DHT22;57451;52.496;13.456;2023-05-07T04:03:24;9.80;71.10
70079;DHT22;57451;52.496;13.456;2023-05-07T04:05:52;9.70;71.20
70079;DHT22;57451;52.496;13.456;2023-05-07T04:08:19;9.70;71.40
70079;DHT22;57451;52.496;13.456;2023-05-07T04:10:55;9.70;71.30
70079;DHT22;57451;52.496;13.456;2023-05-07T04:13:24;9.70;71.20
70079;DHT22;57451;52.496;13.456;2023-05-07T04:15:52;9.70;71.40
70079;DHT22;57451;52.496;13.456;2023-05-07T04:18:19;9.70;71.20
70079;DHT22;57451;52.496;13.456;2023-05-07T04:20:48;9.70;71.30
70079;DHT22;57451;52.496;13.456;2023-05-07T04:23:17;9.70;71.20
70079;DHT22;57451;52.496;13.456;2023-05-07T04:25:44;9.70;71.00
70079;DHT22;57451;52.496;13.456;2023-05-07T04:28:27;9.70;71.00
70079;DHT22;57451;52.496;13.456;2023-05-07T04:30:54;9.70;71.00
70079;DHT22;57451;52.496;13.456;2023-05-07T04:33:22;9.70;71.00
70079;DHT22;57451;52.496;13.456;2023-05-07T04:35:50;9.70;70.90
70079;DHT22;57451;52.496;13.456;2023-05-07T04:38:17;9.70;70.70
70079;DHT22;57451;52.496;13.456;2023-05-07T04:40:47;9.70;70.70
70079;DHT22;57451;52.496;13.456;2023-05-07T04:43:18;9.70;70.70
70079;DHT22;57451;52.496;13.456;2023-05-07T04:45:51;9.80;70.60
70079;DHT22;57451;52.496;13.456;2023-05-07T04:48:21;9.80;70.60
70079;DHT22;57451;52.496;13.456;2023-05-07T04:50:50;9.80;70.30
70079;DHT22;57451;52.496;13.456;2023-05-07T04:53:19;9.80;70.50
70079;DHT22;57451;52.496;13.456;2023-05-07T04:55:48;9.80;70.40
70079;DHT22;57451;52.496;13.456;2023-05-07T04:58:15;9.80;70.30
70079;DHT22;57451;52.496;13.456;2023-05-07T05:00:45;9.80;70.00
70079;DHT22;57451;52.496;13.456;2023-05-07T05:03:13;9.90;70.00
70079;DHT22;57451;52.496;13.456;2023-05-07T05:05:41;9.90;69.70
70079;DHT22;57451;52.496;13.456;2023-05-07T05:08:09;9.90;70.00
70079;DHT22;57451;52.496;13.456;2023-05-07T05:10:38;9.90;69.80
70079;DHT22;57451;52.496;13.456;2023-05-07T05:13:06;9.90;69.70
70079;DHT22;57451;52.496;13.456;2023-05-07T05:15:35;9.90;69.50
70079;DHT22;57451;52.496;13.456;2023-05-07T05:18:03;10.00;69.40
70079;DHT22;57451;52.496;13.456;2023-05-07T05:20:32;10.00;69.40
70079;DHT22;57451;52.496;13.456;2023-05-07T05:22:59;10.00;69.30
70079;DHT22;57451;52.496;13.456;2023-05-07T05:25:26;10.00;69.30
70079;DHT22;57451;52.496;13.456;2023-05-07T05:27:56;10.00;69.10
70079;DHT22;57451;52.496;13.456;2023-05-07T05:30:24;10.10;68.90
70079;DHT22;57451;52.496;13.456;2023-05-07T05:32:51;10.10;68.70
70079;DHT22;57451;52.496;13.456;2023-05-07T05:35:19;10.10;69.00
70079;DHT22;57451;52.496;13.456;2023-05-07T05:37:48;10.10;68.70
70079;DHT22;57451;52.496;13.456;2023-05-07T05:40:17;10.10;68.80
70079;DHT22;57451;52.496;13.456;2023-05-07T05:42:44;10.20;68.60
70079;DHT22;57451;52.496;13.456;2023-05-07T05:45:12;10.20;68.50
70079;DHT22;57451;52.496;13.456;2023-05-07T05:47:40;10.20;68.50
70079;DHT22;57451;52.496;13.456;2023-05-07T05:50:08;10.20;69.20
70079;DHT22;57451;52.496;13.456;2023-05-07T05:52:37;10.30;68.90
70079;DHT22;57451;52.496;13.456;2023-05-07T05:55:07;10.30;68.90
70079;DHT22;57451;52.496;13.456;2023-05-07T05:57:36;10.30;68.70
70079;DHT22;57451;52.496;13.456;2023-05-07T06:00:04;10.40;68.40
70079;DHT22;57451;52.496;13.456;2023-05-07T06:02:33;10.40;68.40
70079;DHT22;57451;52.496;13.456;2023-05-07T06:05:00;10.40;68.40
70079;DHT22;57451;52.496;13.456;2023-05-07T06:07:28;10.50;68.20
70079;DHT22;57451;52.496;13.456;2023-05-07T06:09:55;10.50;67.90
70079;DHT22;57451;52.496;13.456;2023-05-07T06:12:24;10.50;67.70
70079;DHT22;57451;52.496;13.456;2023-05-07T06:14:52;10.50;67.60
70079;DHT22;57451;52.496;13.456;2023-05-07T06:17:19;10.60;67.80
70079;DHT22;57451;52.496;13.456;2023-05-07T06:19:49;10.70;67.50
70079;DHT22;57451;52.496;13.456;2023-05-07T06:22:18;10.70;67.40
70079;DHT22;57451;52.496;13.456;2023-05-07T06:24:46;10.60;67.80
70079;DHT22;57451;52.496;13.456;2023-05-07T06:27:13;10.70;67.70
70079;DHT22;57451;52.496;13.456;2023-05-07T06:29:42;10.80;67.40
70079;DHT22;57451;52.496;13.456;2023-05-07T06:32:14;10.80;67.10
70079;DHT22;57451;52.496;13.456;2023-05-07T06:34:43;10.80;66.80
70079;DHT22;57451;52.496;13.456;2023-05-07T06:37:11;10.80;66.90
70079;DHT22;57451;52.496;13.456;2023-05-07T06:40:01;10.80;66.90
70079;DHT22;57451;52.496;13.456;2023-05-07T06:42:31;10.90;66.70
70079;DHT22;57451;52.496;13.456;2023-05-07T06:45:17;10.80;66.70
70079;DHT22;57451;52.496;13.456;2023-05-07T06:47:44;10.80;66.90
70079;DHT22;57451;52.496;13.456;2023-05-07T06:50:11;10.90;66.80
70079;DHT22;57451;52.496;13.456;2023-05-07T06:52:39;10.90;66.60
70079;DHT22;57451;52.496;13.456;2023-05-07T06:55:07;10.90;66.60
70079;DHT22;57451;52.496;13.456;2023-05-07T06:57:34;11.00;66.60
70079;DHT22;57451;52.496;13.456;2023-05-07T07:00:02;11.00;66.40
70079;DHT22;57451;52.496;13.456;2023-05-07T07:02:33;11.10;66.50
70079;DHT22;57451;52.496;13.456;2023-05-07T07:05:00;11.10;66.00
70079;DHT22;57451;52.496;13.456;2023-05-07T07:07:27;11.20;66.00
70079;DHT22;57451;52.496;13.456;2023-05-07T07:09:55;11.30;65.90
70079;DHT22;57451;52.496;13.456;2023-05-07T07:12:22;11.30;65.40
70079;DHT22;57451;52.496;13.456;2023-05-07T07:14:52;11.40;65.50
70079;DHT22;57451;52.496;13.456;2023-05-07T07:17:21;11.50;66.10
70079;DHT22;57451;52.496;13.456;2023-05-07T07:19:51;11.60;65.30
70079;DHT22;57451;52.496;13.456;2023-05-07T07:22:18;11.70;66.00
70079;DHT22;57451;52.496;13.456;2023-05-07T07:24:45;11.70;66.20
70079;DHT22;57451;52.496;13.456;2023-05-07T07:27:16;11.90;65.20
70079;DHT22;57451;52.496;13.456;2023-05-07T07:29:43;11.90;65.50
70079;DHT22;57451;52.496;13.456;2023-05-07T07:32:11;12.00;64.40
70079;DHT22;57451;52.496;13.456;2023-05-07T07:34:39;12.10;63.60
70079;DHT22;57451;52.496;13.456;2023-05-07T07:37:08;12.10;63.80
70079;DHT22;57451;52.496;13.456;2023-05-07T07:39:37;12.20;63.50
70079;DHT22;57451;52.496;13.456;2023-05-07T07:42:08;12.30;63.70
70079;DHT22;57451;52.496;13.456;2023-05-07T07:44:36;12.40;63.40
70079;DHT22;57451;52.496;13.456;2023-05-07T07:47:07;12.50;63.40
70079;DHT22;57451;52.496;13.456;2023-05-07T07:49:34;12.50;62.00
70079;DHT22;57451;52.496;13.456;2023-05-07T07:52:05;12.60;62.00
70079;DHT22;57451;52.496;13.456;2023-05-07T07:54:36;12.70;62.60
70079;DHT22;57451;52.496;13.456;2023-05-07T07:57:06;12.70;60.60
70079;DHT22;57451;52.496;13.456;2023-05-07T07:59:34;12.70;60.70
70079;DHT22;57451;52.496;13.456;2023-05-07T08:02:01;12.80;60.70
70079;DHT22;57451;52.496;13.456;2023-05-07T08:04:30;12.90;61.60
70079;DHT22;57451;52.496;13.456;2023-05-07T08:07:01;12.90;60.90
70079;DHT22;57451;52.496;13.456;2023-05-07T08:09:31;13.00;61.00
70079;DHT22;57451;52.496;13.456;2023-05-07T08:12:01;13.10;59.40
70079;DHT22;57451;52.496;13.456;2023-05-07T08:14:32;13.10;60.00
70079;DHT22;57451;52.496;13.456;2023-05-07T08:16:59;13.20;59.80
70079;DHT22;57451;52.496;13.456;2023-05-07T08:19:27;13.20;59.20
70079;DHT22;57451;52.496;13.456;2023-05-07T08:21:55;13.30;60.00
70079;DHT22;57451;52.496;13.456;2023-05-07T08:24:24;13.30;59.70
70079;DHT22;57451;52.496;13.456;2023-05-07T08:26:52;13.40;59.30
70079;DHT22;57451;52.496;13.456;2023-05-07T08:29:20;13.50;60.10
70079;DHT22;57451;52.496;13.456;2023-05-07T08:31:48;13.60;58.50
70079;DHT22;57451;52.496;13.456;2023-05-07T08:34:15;13.60;59.20
70079;DHT22;57451;52.496;13.456;2023-05-07T08:36:45;13.80;59.00
70079;DHT22;57451;52.496;13.456;2023-05-07T08:39:17;13.90;59.10
70079;DHT22;57451;52.496;13.456;2023-05-07T08:41:48;14.00;58.60
70079;DHT22;57451;52.496;13.456;2023-05-07T08:44:21;14.00;58.50
70079;DHT22;57451;52.496;13.456;2023-05-07T08:46:52;14.10;57.50
70079;DHT22;57451;52.496;13.456;2023-05-07T08:49:22;14.20;57.10
70079;DHT22;57451;52.496;13.456;2023-05-07T08:51:51;14.30;57.90
70079;DHT22;57451;52.496;13.456;2023-05-07T08:54:20;14.40;57.40
70079;DHT22;57451;52.496;13.456;2023-05-07T08:56:48;14.50;55.50
70079;DHT22;57451;52.496;13.456;2023-05-07T08:59:15;14.60;56.40
70079;DHT22;57451;52.496;13.456;2023-05-07T09:01:45;14.70;55.90
70079;DHT22;57451;52.496;13.456;2023-05-07T09:04:14;14.80;55.20
70079;DHT22;57451;52.496;13.456;2023-05-07T09:06:42;15.00;54.90
70079;DHT22;57451;52.496;13.456;2023-05-07T09:09:14;15.00;54.80
70079;DHT22;57451;52.496;13.456;2023-05-07T09:11:44;15.10;56.40
70079;DHT22;57451;52.496;13.456;2023-05-07T09:14:14;15.20;55.30
70079;DHT22;57451;52.496;13.456;2023-05-07T09:16:43;15.40;55.10
70079;DHT22;57451;52.496;13.456;2023-05-07T09:19:12;15.50;54.30
70079;DHT22;57451;52.496;13.456;2023-05-07T09:21:44;15.40;52.80
70079;DHT22;57451;52.496;13.456;2023-05-07T09:24:15;15.40;54.30
70079;DHT22;57451;52.496;13.456;2023-05-07T09:26:43;15.50;53.00
70079;DHT22;57451;52.496;13.456;2023-05-07T09:29:11;15.50;53.60
70079;DHT22;57451;52.496;13.456;2023-05-07T09:31:39;15.50;53.60
70079;DHT22;57451;52.496;13.456;2023-05-07T09:34:11;15.60;53.80
70079;DHT22;57451;52.496;13.456;2023-05-07T09:36:42;15.70;54.30
70079;DHT22;57451;52.496;13.456;2023-05-07T09:39:10;15.80;53.40
70079;DHT22;57451;52.496;13.456;2023-05-07T09:41:43;15.70;52.90
70079;DHT22;57451;52.496;13.456;2023-05-07T09:44:16;15.80;52.80
70079;DHT22;57451;52.496;13.456;2023-05-07T09:46:54;15.80;52.50
70079;DHT22;57451;52.496;13.456;2023-05-07T09:49:33;15.80;51.90
70079;DHT22;57451;52.496;13.456;2023-05-07T09:52:06;15.80;52.00
70079;DHT22;57451;52.496;13.456;2023-05-07T09:54:38;15.80;51.90
70079;DHT22;57451;52.496;13.456;2023-05-07T09:57:10;15.90;53.60
70079;DHT22;57451;52.496;13.456;2023-05-07T09:59:42;16.00;52.50
70079;DHT22;57451;52.496;13.456;2023-05-07T10:02:14;16.00;52.10
70079;DHT22;57451;52.496;13.456;2023-05-07T10:04:49;16.10;52.30
70079;DHT22;57451;52.496;13.456;2023-05-07T10:07:22;16.00;51.20
70079;DHT22;57451;52.496;13.456;2023-05-07T10:09:53;16.10;50.30
70079;DHT22;57451;52.496;13.456;2023-05-07T10:12:37;16.10;51.00
70079;DHT22;57451;52.496;13.456;2023-05-07T10:15:12;16.00;50.00
70079;DHT22;57451;52.496;13.456;2023-05-07T10:17:44;16.00;50.70
70079;DHT22;57451;52.496;13.456;2023-05-07T10:20:14;16.00;50.90
70079;DHT22;57451;52.496;13.456;2023-05-07T10:22:45;16.00;51.10
70079;DHT22;57451;52.496;13.456;2023-05-07T10:25:19;16.00;50.40
70079;DHT22;57451;52.496;13.456;2023-05-07T10:27:49;15.90;50.60
70079;DHT22;57451;52.496;13.456;2023-05-07T10:30:26;15.90;50.20
70079;DHT22;57451;52.496;13.456;2023-05-07T10:32:56;15.90;50.00
70079;DHT22;57451;52.496;13.456;2023-05-07T10:35:39;16.00;50.60
70079;DHT22;57451;52.496;13.456;2023-05-07T10:38:08;16.00;50.30
70079;DHT22;57451;52.496;13.456;2023-05-07T10:40:39;16.00;50.00
70079;DHT22;57451;52.496;13.456;2023-05-07T10:43:08;15.90;50.50
70079;DHT22;57451;52.496;13.456;2023-05-07T10:45:42;15.90;50.70
70079;DHT22;57451;52.496;13.456;2023-05-07T10:48:12;15.90;50.40
70079;DHT22;57451;52.496;13.456;2023-05-07T10:51:19;16.00;50.10
70079;DHT22;57451;52.496;13.456;2023-05-07T10:53:48;16.10;49.40
70079;DHT22;57451;52.496;13.456;2023-05-07T10:56:25;16.10;49.80
70079;DHT22;57451;52.496;13.456;2023-05-07T10:59:35;16.20;50.30
70079;DHT22;57451;52.496;13.456;2023-05-07T11:02:20;16.20;48.70
70079;DHT22;57451;52.496;13.456;2023-05-07T11:05:19;16.20;49.00
70079;DHT22;57451;52.496;13.456;2023-05-07T11:07:59;16.10;49.60
70079;DHT22;57451;52.496;13.456;2023-05-07T11:10:49;16.20;49.70
70079;DHT22;57451;52.496;13.456;2023-05-07T11:13:41;16.30;49.10
70079;DHT22;57451;52.496;13.456;2023-05-07T11:16:18;16.40;49.90
70079;DHT22;57451;52.496;13.456;2023-05-07T11:18:49;16.50;48.70
70079;DHT22;57451;52.496;13.456;2023-05-07T11:21:34;16.50;48.90
70079;DHT22;57451;52.496;13.456;2023-05-07T11:24:22;16.50;50.10
70079;DHT22;57451;52.496;13.456;2023-05-07T11:27:02;16.50;48.60
70079;DHT22;57451;52.496;13.456;2023-05-07T11:29:31;16.60;47.80
70079;DHT22;57451;52.496;13.456;2023-05-07T11:32:04;16.50;48.00
70079;DHT22;57451;52.496;13.456;2023-05-07T11:34:39;16.60;49.00
70079;DHT22;57451;52.496;13.456;2023-05-07T11:37:08;16.60;48.70
70079;DHT22;57451;52.496;13.456;2023-05-07T11:39:47;16.70;49.30
70079;DHT22;57451;52.496;13.456;2023-05-07T11:42:25;16.80;48.40
70079;DHT22;57451;52.496;13.456;2023-05-07T11:44:53;16.90;49.40
70079;DHT22;57451;52.496;13.456;2023-05-07T11:47:20;17.00;48.60
70079;DHT22;57451;52.496;13.456;2023-05-07T11:49:48;17.00;48.70
70079;DHT22;57451;52.496;13.456;2023-05-07T11:52:17;17.10;50.00
70079;DHT22;57451;52.496;13.456;2023-05-07T11:54:50;17.20;49.00
70079;DHT22;57451;52.496;13.456;2023-05-07T11:57:17;17.30;48.60
70079;DHT22;57451;52.496;13.456;2023-05-07T11:59:45;17.40;47.20
70079;DHT22;57451;52.496;13.456;2023-05-07T12:02:14;17.30;47.70
70079;DHT22;57451;52.496;13.456;2023-05-07T12:04:42;17.30;47.00
70079;DHT22;57451;52.496;13.456;2023-05-07T12:07:11;17.40;47.40
70079;DHT22;57451;52.496;13.456;2023-05-07T12:09:39;17.40;46.70
70079;DHT22;57451;52.496;13.456;2023-05-07T12:12:08;17.40;47.00
70079;DHT22;57451;52.496;13.456;2023-05-07T12:14:38;17.50;47.60
70079;DHT22;57451;52.496;13.456;2023-05-07T12:17:06;17.60;46.40
70079;DHT22;57451;52.496;13.456;2023-05-07T12:19:34;17.80;44.90
70079;DHT22;57451;52.496;13.456;2023-05-07T12:22:03;17.80;46.30
70079;DHT22;57451;52.496;13.456;2023-05-07T12:24:44;17.80;44.00
70079;DHT22;57451;52.496;13.456;2023-05-07T12:27:14;17.90;45.50
70079;DHT22;57451;52.496;13.456;2023-05-07T12:29:44;17.80;45.60
70079;DHT22;57451;52.496;13.456;2023-05-07T12:32:13;17.90;46.20
70079;DHT22;57451;52.496;13.456;2023-05-07T12:34:41;17.90;44.90
70079;DHT22;57451;52.496;13.456;2023-05-07T12:37:11;18.00;45.90
70079;DHT22;57451;52.496;13.456;2023-05-07T12:39:44;18.00;45.50
70079;DHT22;57451;52.496;13.456;2023-05-07T12:42:16;18.00;46.50
70079;DHT22;57451;52.496;13.456;2023-05-07T12:44:46;18.10;45.40
70079;DHT22;57451;52.496;13.456;2023-05-07T12:47:15;18.20;45.30
70079;DHT22;57451;52.496;13.456;2023-05-07T12:49:43;18.20;44.60
70079;DHT22;57451;52.496;13.456;2023-05-07T12:52:12;18.30;45.20
70079;DHT22;57451;52.496;13.456;2023-05-07T12:54:40;18.40;45.10
70079;DHT22;57451;52.496;13.456;2023-05-07T12:57:09;18.20;45.00
70079;DHT22;57451;52.496;13.456;2023-05-07T12:59:40;18.20;44.50
70079;DHT22;57451;52.496;13.456;2023-05-07T13:02:08;18.30;44.80
70079;DHT22;57451;52.496;13.456;2023-05-07T13:04:37;18.50;45.20
70079;DHT22;57451;52.496;13.456;2023-05-07T13:07:04;18.60;44.50
70079;DHT22;57451;52.496;13.456;2023-05-07T13:09:32;18.70;43.50
70079;DHT22;57451;52.496;13.456;2023-05-07T13:11:59;18.80;43.90
70079;DHT22;57451;52.496;13.456;2023-05-07T13:14:28;19.00;43.20
70079;DHT22;57451;52.496;13.456;2023-05-07T13:16:57;19.10;44.20
70079;DHT22;57451;52.496;13.456;2023-05-07T13:19:24;19.30;43.40
70079;DHT22;57451;52.496;13.456;2023-05-07T13:21:51;19.60;41.50
70079;DHT22;57451;52.496;13.456;2023-05-07T13:24:19;19.80;42.00
70079;DHT22;57451;52.496;13.456;2023-05-07T13:26:46;19.90;41.10
70079;DHT22;57451;52.496;13.456;2023-05-07T13:29:14;20.20;40.40
70079;DHT22;57451;52.496;13.456;2023-05-07T13:31:41;20.30;40.50
70079;DHT22;57451;52.496;13.456;2023-05-07T13:34:12;20.40;41.30
70079;DHT22;57451;52.496;13.456;2023-05-07T13:36:39;20.40;40.70
70079;DHT22;57451;52.496;13.456;2023-05-07T13:39:08;20.70;41.10
70079;DHT22;57451;52.496;13.456;2023-05-07T13:41:36;20.90;40.10
70079;DHT22;57451;52.496;13.456;2023-05-07T13:44:03;20.90;38.40
70079;DHT22;57451;52.496;13.456;2023-05-07T13:46:31;20.90;39.20
70079;DHT22;57451;52.496;13.456;2023-05-07T13:48:58;21.20;39.80
70079;DHT22;57451;52.496;13.456;2023-05-07T13:51:27;21.20;38.10
70079;DHT22;57451;52.496;13.456;2023-05-07T13:53:54;21.20;39.40
70079;DHT22;57451;52.496;13.456;2023-05-07T13:56:22;21.30;38.40
70079;DHT22;57451;52.496;13.456;2023-05-07T13:58:50;21.30;38.30
70079;DHT22;57451;52.496;13.456;2023-05-07T14:01:27;21.40;38.70
70079;DHT22;57451;52.496;13.456;2023-05-07T14:03:55;21.60;38.90
70079;DHT22;57451;52.496;13.456;2023-05-07T14:06:23;21.40;38.80
70079;DHT22;57451;52.496;13.456;2023-05-07T14:08:52;21.50;39.50
70079;DHT22;57451;52.496;13.456;2023-05-07T14:11:19;21.70;39.80
70079;DHT22;57451;52.496;13.456;2023-05-07T14:13:47;21.60;39.70
70079;DHT22;57451;52.496;13.456;2023-05-07T14:16:15;21.70;38.40
70079;DHT22;57451;52.496;13.456;2023-05-07T14:18:42;21.70;39.10
70079;DHT22;57451;52.496;13.456;2023-05-07T14:21:09;21.70;38.30
70079;DHT22;57451;52.496;13.456;2023-05-07T14:23:37;21.60;39.40
70079;DHT22;57451;52.496;13.456;2023-05-07T14:26:05;21.60;39.10
70079;DHT22;57451;52.496;13.456;2023-05-07T14:28:33;21.40;37.90
70079;DHT22;57451;52.496;13.456;2023-05-07T14:31:00;21.20;39.30
70079;DHT22;57451;52.496;13.456;2023-05-07T14:33:28;21.30;40.10
70079;DHT22;57451;52.496;13.456;2023-05-07T14:35:55;21.30;39.30
70079;DHT22;57451;52.496;13.456;2023-05-07T14:38:22;21.20;38.20
70079;DHT22;57451;52.496;13.456;2023-05-07T14:44:24;20.90;38.80
70079;DHT22;57451;52.496;13.456;2023-05-07T14:46:52;20.70;38.50
70079;DHT22;57451;52.496;13.456;2023-05-07T14:49:20;20.50;39.60
70079;DHT22;57451;52.496;13.456;2023-05-07T14:51:47;20.50;40.00
70079;DHT22;57451;52.496;13.456;2023-05-07T14:54:15;20.60;39.50
70079;DHT22;57451;52.496;13.456;2023-05-07T15:01:21;20.10;40.10
70079;DHT22;57451;52.496;13.456;2023-05-07T15:03:49;20.10;40.20
70079;DHT22;57451;52.496;13.456;2023-05-07T15:06:17;20.00;40.10
70079;DHT22;57451;52.496;13.456;2023-05-07T15:08:44;20.00;40.10
70079;DHT22;57451;52.496;13.456;2023-05-07T15:11:12;19.80;40.10
70079;DHT22;57451;52.496;13.456;2023-05-07T15:13:42;19.60;40.80
70079;DHT22;57451;52.496;13.456;2023-05-07T15:16:09;19.50;41.40
70079;DHT22;57451;52.496;13.456;2023-05-07T15:18:41;19.60;41.50
70079;DHT22;57451;52.496;13.456;2023-05-07T15:21:08;19.50;40.80
70079;DHT22;57451;52.496;13.456;2023-05-07T15:23:36;19.40;40.50
70079;DHT22;57451;52.496;13.456;2023-05-07T15:26:04;19.20;41.30
70079;DHT22;57451;52.496;13.456;2023-05-07T15:28:32;19.10;41.80
70079;DHT22;57451;52.496;13.456;2023-05-07T15:31:00;19.00;41.40
70079;DHT22;57451;52.496;13.456;2023-05-07T15:33:27;19.00;42.10
70079;DHT22;57451;52.496;13.456;2023-05-07T15:35:56;18.80;42.30
70079;DHT22;57451;52.496;13.456;2023-05-07T15:38:26;18.80;42.40
70079;DHT22;57451;52.496;13.456;2023-05-07T15:40:53;18.60;42.20
70079;DHT22;57451;52.496;13.456;2023-05-07T15:43:21;18.50;42.30